sensor_id;sensor_type;location;lat;lon;timestamp;P1;durP1;ratioP1;P2;durP2;ratioP2
61709;SDS011;47633;51.494;5.386;2022-11-02T00:01:22;5.45;;;1.27;;
61709;SDS011;47633;51.494;5.386;2022-11-02T00:03:49;5.50;;;1.55;;
61709;SDS011;47633;51.494;5.386;2022-11-02T00:06:15;4.60;;;1.23;;
61709;SDS011;47633;51.494;5.386;2022-11-02T00:08:40;4.88;;;1.40;;
61709;SDS011;47633;51.494;5.386;2022-11-02T00:11:06;4.22;;;1.20;;
61709;SDS011;47633;51.494;5.386;2022-11-02T00:13:31;4.35;;;1.30;;
61709;SDS011;47633;51.494;5.386;2022-11-02T00:15:59;6.15;;;1.38;;
61709;SDS011;47633;51.494;5.386;2022-11-02T00:18:26;5.07;;;1.50;;
61709;SDS011;47633;51.494;5.386;2022-11-02T00:20:51;6.13;;;1.20;;
61709;SDS011;47633;51.494;5.386;2022-11-02T00:23:17;5.30;;;1.35;;
61709;SDS011;47633;51.494;5.386;2022-11-02T00:25:44;3.30;;;1.13;;
61709;SDS011;47633;51.494;5.386;2022-11-02T00:28:12;4.57;;;1.13;;
61709;SDS011;47633;51.494;5.386;2022-11-02T00:30:37;4.20;;;1.25;;
61709;SDS011;47633;51.494;5.386;2022-11-02T00:33:03;6.55;;;1.10;;
61709;SDS011;47633;51.494;5.386;2022-11-02T00:35:28;4.72;;;1.30;;
61709;SDS011;47633;51.494;5.386;2022-11-02T00:37:54;5.50;;;1.45;;
61709;SDS011;47633;51.494;5.386;2022-11-02T00:40:19;4.78;;;1.10;;
61709;SDS011;47633;51.494;5.386;2022-11-02T00:42:44;4.18;;;1.30;;
61709;SDS011;47633;51.494;5.386;2022-11-02T00:45:10;4.47;;;1.25;;
61709;SDS011;47633;51.494;5.386;2022-11-02T00:47:35;4.90;;;1.33;;
61709;SDS011;47633;51.494;5.386;2022-11-02T00:50:01;3.97;;;1.20;;
61709;SDS011;47633;51.494;5.386;2022-11-02T00:52:26;4.63;;;1.30;;
61709;SDS011;47633;51.494;5.386;2022-11-02T00:54:51;5.67;;;1.20;;
61709;SDS011;47633;51.494;5.386;2022-11-02T00:57:17;6.35;;;1.55;;
61709;SDS011;47633;51.494;5.386;2022-11-02T00:59:42;5.43;;;1.20;;
61709;SDS011;47633;51.494;5.386;2022-11-02T01:02:07;5.17;;;1.33;;
61709;SDS011;47633;51.494;5.386;2022-11-02T01:04:33;5.13;;;1.37;;
61709;SDS011;47633;51.494;5.386;2022-11-02T01:06:58;4.20;;;1.13;;
61709;SDS011;47633;51.494;5.386;2022-11-02T01:09:23;5.10;;;1.10;;
61709;SDS011;47633;51.494;5.386;2022-11-02T01:11:48;4.63;;;1.57;;
61709;SDS011;47633;51.494;5.386;2022-11-02T01:14:14;4.85;;;1.20;;
61709;SDS011;47633;51.494;5.386;2022-11-02T01:16:39;3.70;;;1.00;;
61709;SDS011;47633;51.494;5.386;2022-11-02T01:19:05;5.28;;;1.10;;
61709;SDS011;47633;51.494;5.386;2022-11-02T01:21:31;3.88;;;1.23;;
61709;SDS011;47633;51.494;5.386;2022-11-02T01:23:56;3.67;;;1.13;;
61709;SDS011;47633;51.494;5.386;2022-11-02T01:26:21;4.45;;;1.40;;
61709;SDS011;47633;51.494;5.386;2022-11-02T01:28:46;5.67;;;1.23;;
61709;SDS011;47633;51.494;5.386;2022-11-02T01:31:12;3.88;;;1.08;;
61709;SDS011;47633;51.494;5.386;2022-11-02T01:33:41;2.83;;;1.00;;
61709;SDS011;47633;51.494;5.386;2022-11-02T01:36:08;3.38;;;0.93;;
61709;SDS011;47633;51.494;5.386;2022-11-02T01:38:33;4.65;;;1.40;;
61709;SDS011;47633;51.494;5.386;2022-11-02T01:40:59;4.40;;;1.10;;
61709;SDS011;47633;51.494;5.386;2022-11-02T01:43:25;4.97;;;1.38;;
61709;SDS011;47633;51.494;5.386;2022-11-02T01:45:56;5.15;;;1.10;;
61709;SDS011;47633;51.494;5.386;2022-11-02T01:48:29;4.40;;;1.27;;
61709;SDS011;47633;51.494;5.386;2022-11-02T01:51:26;5.15;;;1.00;;
61709;SDS011;47633;51.494;5.386;2022-11-02T01:53:55;3.63;;;1.05;;
61709;SDS011;47633;51.494;5.386;2022-11-02T01:56:24;5.35;;;1.55;;
61709;SDS011;47633;51.494;5.386;2022-11-02T01:58:56;6.68;;;1.00;;
61709;SDS011;47633;51.494;5.386;2022-11-02T02:01:25;3.97;;;1.00;;
61709;SDS011;47633;51.494;5.386;2022-11-02T02:03:51;2.67;;;0.90;;
61709;SDS011;47633;51.494;5.386;2022-11-02T02:06:17;4.78;;;1.13;;
61709;SDS011;47633;51.494;5.386;2022-11-02T02:08:46;3.72;;;1.17;;
61709;SDS011;47633;51.494;5.386;2022-11-02T02:14:03;4.93;;;1.25;;
61709;SDS011;47633;51.494;5.386;2022-11-02T02:19:13;3.08;;;1.00;;
61709;SDS011;47633;51.494;5.386;2022-11-02T02:22:28;2.75;;;1.00;;
61709;SDS011;47633;51.494;5.386;2022-11-02T02:30:41;5.40;;;1.13;;
61709;SDS011;47633;51.494;5.386;2022-11-02T02:33:12;5.47;;;1.30;;
61709;SDS011;47633;51.494;5.386;2022-11-02T02:35:49;5.05;;;1.17;;
61709;SDS011;47633;51.494;5.386;2022-11-02T02:38:23;4.68;;;0.90;;
61709;SDS011;47633;51.494;5.386;2022-11-02T02:43:53;3.90;;;1.02;;
61709;SDS011;47633;51.494;5.386;2022-11-02T02:46:41;4.65;;;0.90;;
61709;SDS011;47633;51.494;5.386;2022-11-02T02:49:11;3.72;;;0.90;;
61709;SDS011;47633;51.494;5.386;2022-11-02T02:51:42;4.00;;;1.08;;
61709;SDS011;47633;51.494;5.386;2022-11-02T02:54:11;6.68;;;1.10;;
61709;SDS011;47633;51.494;5.386;2022-11-02T02:56:45;3.05;;;1.02;;
61709;SDS011;47633;51.494;5.386;2022-11-02T02:59:25;4.57;;;1.10;;
61709;SDS011;47633;51.494;5.386;2022-11-02T03:01:53;6.03;;;1.20;;
61709;SDS011;47633;51.494;5.386;2022-11-02T03:04:20;5.40;;;1.33;;
61709;SDS011;47633;51.494;5.386;2022-11-02T03:06:49;4.13;;;1.10;;
61709;SDS011;47633;51.494;5.386;2022-11-02T03:09:35;5.38;;;1.20;;
61709;SDS011;47633;51.494;5.386;2022-11-02T03:17:46;4.57;;;1.23;;
61709;SDS011;47633;51.494;5.386;2022-11-02T03:20:37;5.68;;;1.20;;
61709;SDS011;47633;51.494;5.386;2022-11-02T03:23:15;4.50;;;1.15;;
61709;SDS011;47633;51.494;5.386;2022-11-02T03:25:47;4.93;;;1.20;;
61709;SDS011;47633;51.494;5.386;2022-11-02T03:28:41;4.38;;;1.33;;
61709;SDS011;47633;51.494;5.386;2022-11-02T03:34:06;4.57;;;1.20;;
61709;SDS011;47633;51.494;5.386;2022-11-02T03:36:43;4.35;;;1.10;;
61709;SDS011;47633;51.494;5.386;2022-11-02T03:39:13;5.85;;;1.73;;
61709;SDS011;47633;51.494;5.386;2022-11-02T03:41:43;5.72;;;1.13;;
61709;SDS011;47633;51.494;5.386;2022-11-02T03:44:16;4.28;;;1.05;;
61709;SDS011;47633;51.494;5.386;2022-11-02T03:46:47;5.55;;;1.10;;
61709;SDS011;47633;51.494;5.386;2022-11-02T03:49:17;4.68;;;1.40;;
61709;SDS011;47633;51.494;5.386;2022-11-02T03:51:44;4.13;;;1.15;;
61709;SDS011;47633;51.494;5.386;2022-11-02T03:56:55;4.20;;;1.00;;
61709;SDS011;47633;51.494;5.386;2022-11-02T03:59:28;5.15;;;1.40;;
61709;SDS011;47633;51.494;5.386;2022-11-02T04:01:55;5.63;;;1.20;;
61709;SDS011;47633;51.494;5.386;2022-11-02T04:04:20;4.07;;;1.10;;
61709;SDS011;47633;51.494;5.386;2022-11-02T04:06:45;4.33;;;1.20;;
61709;SDS011;47633;51.494;5.386;2022-11-02T04:09:12;4.60;;;1.20;;
61709;SDS011;47633;51.494;5.386;2022-11-02T04:11:38;6.55;;;1.50;;
61709;SDS011;47633;51.494;5.386;2022-11-02T04:14:21;4.23;;;1.00;;
61709;SDS011;47633;51.494;5.386;2022-11-02T04:17:02;3.35;;;1.00;;
61709;SDS011;47633;51.494;5.386;2022-11-02T04:19:46;3.95;;;1.17;;
61709;SDS011;47633;51.494;5.386;2022-11-02T04:22:11;5.37;;;1.37;;
61709;SDS011;47633;51.494;5.386;2022-11-02T04:24:55;5.30;;;1.10;;
61709;SDS011;47633;51.494;5.386;2022-11-02T04:27:39;4.78;;;1.00;;
61709;SDS011;47633;51.494;5.386;2022-11-02T04:30:04;6.30;;;1.33;;
61709;SDS011;47633;51.494;5.386;2022-11-02T04:32:35;6.30;;;1.10;;
61709;SDS011;47633;51.494;5.386;2022-11-02T04:35:23;4.95;;;1.33;;
61709;SDS011;47633;51.494;5.386;2022-11-02T04:37:48;5.28;;;1.33;;
61709;SDS011;47633;51.494;5.386;2022-11-02T04:40:32;4.68;;;1.00;;
61709;SDS011;47633;51.494;5.386;2022-11-02T04:42:58;5.43;;;1.38;;
61709;SDS011;47633;51.494;5.386;2022-11-02T04:45:23;4.50;;;1.38;;
61709;SDS011;47633;51.494;5.386;2022-11-02T04:47:48;4.22;;;1.27;;
61709;SDS011;47633;51.494;5.386;2022-11-02T04:50:14;5.85;;;1.52;;
61709;SDS011;47633;51.494;5.386;2022-11-02T04:52:39;4.87;;;1.20;;
61709;SDS011;47633;51.494;5.386;2022-11-02T04:55:04;3.90;;;1.00;;
61709;SDS011;47633;51.494;5.386;2022-11-02T04:57:30;4.20;;;1.10;;
61709;SDS011;47633;51.494;5.386;2022-11-02T04:59:55;5.70;;;1.27;;
61709;SDS011;47633;51.494;5.386;2022-11-02T05:02:21;4.63;;;1.17;;
61709;SDS011;47633;51.494;5.386;2022-11-02T05:04:46;4.78;;;1.27;;
61709;SDS011;47633;51.494;5.386;2022-11-02T05:07:11;6.00;;;1.43;;
61709;SDS011;47633;51.494;5.386;2022-11-02T05:09:36;4.32;;;1.13;;
61709;SDS011;47633;51.494;5.386;2022-11-02T05:12:02;3.95;;;1.20;;
61709;SDS011;47633;51.494;5.386;2022-11-02T05:14:29;5.45;;;1.48;;
61709;SDS011;47633;51.494;5.386;2022-11-02T05:16:55;4.72;;;1.30;;
61709;SDS011;47633;51.494;5.386;2022-11-02T05:19:21;5.95;;;1.33;;
61709;SDS011;47633;51.494;5.386;2022-11-02T05:21:46;6.13;;;1.50;;
61709;SDS011;47633;51.494;5.386;2022-11-02T05:24:11;5.23;;;1.30;;
61709;SDS011;47633;51.494;5.386;2022-11-02T05:26:37;5.63;;;1.23;;
61709;SDS011;47633;51.494;5.386;2022-11-02T05:29:02;4.97;;;1.53;;
61709;SDS011;47633;51.494;5.386;2022-11-02T05:31:27;5.97;;;1.20;;
61709;SDS011;47633;51.494;5.386;2022-11-02T05:33:52;5.10;;;1.60;;
61709;SDS011;47633;51.494;5.386;2022-11-02T05:36:18;5.80;;;1.33;;
61709;SDS011;47633;51.494;5.386;2022-11-02T05:38:43;6.47;;;1.35;;
61709;SDS011;47633;51.494;5.386;2022-11-02T05:41:08;6.90;;;1.70;;
61709;SDS011;47633;51.494;5.386;2022-11-02T05:43:33;5.25;;;1.30;;
61709;SDS011;47633;51.494;5.386;2022-11-02T05:46:00;5.78;;;1.95;;
61709;SDS011;47633;51.494;5.386;2022-11-02T05:48:26;5.75;;;1.50;;
61709;SDS011;47633;51.494;5.386;2022-11-02T05:50:55;6.43;;;1.55;;
61709;SDS011;47633;51.494;5.386;2022-11-02T05:53:21;6.00;;;1.50;;
61709;SDS011;47633;51.494;5.386;2022-11-02T05:55:47;5.65;;;1.55;;
61709;SDS011;47633;51.494;5.386;2022-11-02T05:58:12;5.53;;;1.33;;
61709;SDS011;47633;51.494;5.386;2022-11-02T06:00:37;5.00;;;1.45;;
61709;SDS011;47633;51.494;5.386;2022-11-02T06:03:03;5.88;;;1.73;;
61709;SDS011;47633;51.494;5.386;2022-11-02T06:05:28;4.20;;;1.30;;
61709;SDS011;47633;51.494;5.386;2022-11-02T06:07:56;4.57;;;1.33;;
61709;SDS011;47633;51.494;5.386;2022-11-02T06:10:22;5.47;;;1.40;;
61709;SDS011;47633;51.494;5.386;2022-11-02T06:12:52;6.03;;;1.17;;
61709;SDS011;47633;51.494;5.386;2022-11-02T06:15:19;4.78;;;1.10;;
61709;SDS011;47633;51.494;5.386;2022-11-02T06:17:44;5.47;;;1.30;;
61709;SDS011;47633;51.494;5.386;2022-11-02T06:20:10;4.37;;;1.20;;
61709;SDS011;47633;51.494;5.386;2022-11-02T06:22:39;4.47;;;1.15;;
61709;SDS011;47633;51.494;5.386;2022-11-02T06:25:05;5.45;;;1.25;;
61709;SDS011;47633;51.494;5.386;2022-11-02T06:27:30;4.63;;;1.42;;
61709;SDS011;47633;51.494;5.386;2022-11-02T06:29:56;4.60;;;1.10;;
61709;SDS011;47633;51.494;5.386;2022-11-02T06:32:21;5.90;;;1.25;;
61709;SDS011;47633;51.494;5.386;2022-11-02T06:34:47;5.45;;;1.27;;
61709;SDS011;47633;51.494;5.386;2022-11-02T06:37:12;3.95;;;1.27;;
61709;SDS011;47633;51.494;5.386;2022-11-02T06:39:37;4.77;;;1.10;;
61709;SDS011;47633;51.494;5.386;2022-11-02T06:42:02;5.00;;;1.20;;
61709;SDS011;47633;51.494;5.386;2022-11-02T06:44:28;6.00;;;1.42;;
61709;SDS011;47633;51.494;5.386;2022-11-02T06:46:53;4.90;;;1.20;;
61709;SDS011;47633;51.494;5.386;2022-11-02T06:49:18;5.37;;;1.30;;
61709;SDS011;47633;51.494;5.386;2022-11-02T06:51:43;7.82;;;1.40;;
61709;SDS011;47633;51.494;5.386;2022-11-02T06:54:09;3.73;;;1.17;;
61709;SDS011;47633;51.494;5.386;2022-11-02T06:56:34;3.90;;;1.30;;
61709;SDS011;47633;51.494;5.386;2022-11-02T06:58:59;4.45;;;1.20;;
61709;SDS011;47633;51.494;5.386;2022-11-02T07:01:24;6.43;;;1.30;;
61709;SDS011;47633;51.494;5.386;2022-11-02T07:03:50;5.00;;;1.10;;
61709;SDS011;47633;51.494;5.386;2022-11-02T07:06:15;4.67;;;1.13;;
61709;SDS011;47633;51.494;5.386;2022-11-02T07:08:41;4.53;;;1.17;;
61709;SDS011;47633;51.494;5.386;2022-11-02T07:11:06;8.45;;;1.40;;
61709;SDS011;47633;51.494;5.386;2022-11-02T07:13:32;4.57;;;1.10;;
61709;SDS011;47633;51.494;5.386;2022-11-02T07:15:57;5.00;;;1.37;;
61709;SDS011;47633;51.494;5.386;2022-11-02T07:18:22;5.50;;;1.30;;
61709;SDS011;47633;51.494;5.386;2022-11-02T07:20:47;5.53;;;1.20;;
61709;SDS011;47633;51.494;5.386;2022-11-02T07:23:13;4.97;;;1.50;;
61709;SDS011;47633;51.494;5.386;2022-11-02T07:25:38;5.32;;;1.48;;
61709;SDS011;47633;51.494;5.386;2022-11-02T07:28:03;6.22;;;1.15;;
61709;SDS011;47633;51.494;5.386;2022-11-02T07:30:29;4.35;;;1.20;;
61709;SDS011;47633;51.494;5.386;2022-11-02T07:32:56;4.75;;;1.30;;
61709;SDS011;47633;51.494;5.386;2022-11-02T07:35:21;5.82;;;1.17;;
61709;SDS011;47633;51.494;5.386;2022-11-02T07:40:22;5.00;;;1.13;;
61709;SDS011;47633;51.494;5.386;2022-11-02T07:42:48;5.70;;;1.45;;
61709;SDS011;47633;51.494;5.386;2022-11-02T07:45:13;5.97;;;1.30;;
61709;SDS011;47633;51.494;5.386;2022-11-02T07:47:45;8.32;;;1.30;;
61709;SDS011;47633;51.494;5.386;2022-11-02T07:50:11;8.05;;;1.42;;
61709;SDS011;47633;51.494;5.386;2022-11-02T07:52:45;6.97;;;1.20;;
61709;SDS011;47633;51.494;5.386;2022-11-02T07:55:15;4.53;;;1.10;;
61709;SDS011;47633;51.494;5.386;2022-11-02T07:57:42;5.13;;;1.50;;
61709;SDS011;47633;51.494;5.386;2022-11-02T08:00:16;8.70;;;1.33;;
61709;SDS011;47633;51.494;5.386;2022-11-02T08:02:41;4.90;;;1.13;;
61709;SDS011;47633;51.494;5.386;2022-11-02T08:05:06;5.50;;;1.47;;
61709;SDS011;47633;51.494;5.386;2022-11-02T08:07:32;5.47;;;1.15;;
61709;SDS011;47633;51.494;5.386;2022-11-02T08:09:57;6.03;;;1.57;;
61709;SDS011;47633;51.494;5.386;2022-11-02T08:12:23;6.50;;;1.20;;
61709;SDS011;47633;51.494;5.386;2022-11-02T08:14:48;7.78;;;1.70;;
61709;SDS011;47633;51.494;5.386;2022-11-02T08:17:14;6.07;;;1.50;;
61709;SDS011;47633;51.494;5.386;2022-11-02T08:19:39;10.63;;;1.60;;
61709;SDS011;47633;51.494;5.386;2022-11-02T08:22:04;14.57;;;1.93;;
61709;SDS011;47633;51.494;5.386;2022-11-02T08:24:30;12.05;;;1.70;;
61709;SDS011;47633;51.494;5.386;2022-11-02T08:26:56;10.27;;;1.70;;
61709;SDS011;47633;51.494;5.386;2022-11-02T08:29:21;6.63;;;1.60;;
61709;SDS011;47633;51.494;5.386;2022-11-02T08:31:46;7.20;;;1.70;;
61709;SDS011;47633;51.494;5.386;2022-11-02T08:34:12;6.72;;;1.63;;
61709;SDS011;47633;51.494;5.386;2022-11-02T08:36:37;8.90;;;1.73;;
61709;SDS011;47633;51.494;5.386;2022-11-02T08:39:02;9.10;;;1.92;;
61709;SDS011;47633;51.494;5.386;2022-11-02T08:41:28;9.93;;;1.98;;
61709;SDS011;47633;51.494;5.386;2022-11-02T08:43:53;9.77;;;1.50;;
61709;SDS011;47633;51.494;5.386;2022-11-02T08:46:18;6.80;;;1.43;;
61709;SDS011;47633;51.494;5.386;2022-11-02T08:48:44;9.88;;;2.05;;
61709;SDS011;47633;51.494;5.386;2022-11-02T08:51:09;7.50;;;1.20;;
61709;SDS011;47633;51.494;5.386;2022-11-02T08:53:34;8.32;;;1.50;;
61709;SDS011;47633;51.494;5.386;2022-11-02T08:56:00;7.40;;;1.30;;
61709;SDS011;47633;51.494;5.386;2022-11-02T08:58:25;6.28;;;1.50;;
61709;SDS011;47633;51.494;5.386;2022-11-02T09:00:53;6.22;;;1.30;;
61709;SDS011;47633;51.494;5.386;2022-11-02T09:03:19;6.25;;;1.42;;
61709;SDS011;47633;51.494;5.386;2022-11-02T09:05:47;6.43;;;1.45;;
61709;SDS011;47633;51.494;5.386;2022-11-02T09:08:13;10.05;;;1.30;;
61709;SDS011;47633;51.494;5.386;2022-11-02T09:10:40;6.88;;;1.23;;
61709;SDS011;47633;51.494;5.386;2022-11-02T09:13:06;7.10;;;1.33;;
61709;SDS011;47633;51.494;5.386;2022-11-02T09:15:34;6.97;;;1.33;;
61709;SDS011;47633;51.494;5.386;2022-11-02T09:18:01;8.23;;;1.50;;
61709;SDS011;47633;51.494;5.386;2022-11-02T09:20:26;7.13;;;1.25;;
61709;SDS011;47633;51.494;5.386;2022-11-02T09:22:52;8.55;;;1.30;;
61709;SDS011;47633;51.494;5.386;2022-11-02T09:25:17;5.53;;;1.20;;
61709;SDS011;47633;51.494;5.386;2022-11-02T09:27:43;8.40;;;1.65;;
61709;SDS011;47633;51.494;5.386;2022-11-02T09:30:10;7.50;;;1.50;;
61709;SDS011;47633;51.494;5.386;2022-11-02T09:32:37;6.03;;;1.52;;
61709;SDS011;47633;51.494;5.386;2022-11-02T09:35:04;5.00;;;1.23;;
61709;SDS011;47633;51.494;5.386;2022-11-02T09:37:32;8.75;;;1.27;;
61709;SDS011;47633;51.494;5.386;2022-11-02T09:39:57;6.93;;;1.50;;
61709;SDS011;47633;51.494;5.386;2022-11-02T09:42:24;4.97;;;1.50;;
61709;SDS011;47633;51.494;5.386;2022-11-02T09:45:28;5.47;;;1.25;;
61709;SDS011;47633;51.494;5.386;2022-11-02T09:48:00;6.20;;;1.35;;
61709;SDS011;47633;51.494;5.386;2022-11-02T09:50:44;5.65;;;1.27;;
61709;SDS011;47633;51.494;5.386;2022-11-02T09:53:18;8.40;;;1.73;;
61709;SDS011;47633;51.494;5.386;2022-11-02T09:55:53;4.93;;;1.33;;
61709;SDS011;47633;51.494;5.386;2022-11-02T09:58:27;6.18;;;1.38;;
61709;SDS011;47633;51.494;5.386;2022-11-02T10:00:58;5.20;;;1.48;;
61709;SDS011;47633;51.494;5.386;2022-11-02T10:06:22;6.38;;;1.38;;
61709;SDS011;47633;51.494;5.386;2022-11-02T10:09:05;8.30;;;1.60;;
61709;SDS011;47633;51.494;5.386;2022-11-02T10:11:54;5.22;;;1.30;;
61709;SDS011;47633;51.494;5.386;2022-11-02T10:14:29;7.95;;;1.77;;
61709;SDS011;47633;51.494;5.386;2022-11-02T10:17:22;5.28;;;1.48;;
61709;SDS011;47633;51.494;5.386;2022-11-02T10:19:52;4.95;;;1.50;;
61709;SDS011;47633;51.494;5.386;2022-11-02T10:22:20;9.10;;;1.98;;
61709;SDS011;47633;51.494;5.386;2022-11-02T10:24:48;9.27;;;2.70;;
61709;SDS011;47633;51.494;5.386;2022-11-02T10:27:24;10.43;;;2.78;;
61709;SDS011;47633;51.494;5.386;2022-11-02T10:29:53;12.10;;;2.55;;
61709;SDS011;47633;51.494;5.386;2022-11-02T10:32:42;10.00;;;2.83;;
61709;SDS011;47633;51.494;5.386;2022-11-02T10:35:23;11.45;;;2.63;;
61709;SDS011;47633;51.494;5.386;2022-11-02T10:46:07;8.95;;;2.35;;
61709;SDS011;47633;51.494;5.386;2022-11-02T10:51:20;9.98;;;2.70;;
61709;SDS011;47633;51.494;5.386;2022-11-02T10:53:48;7.53;;;2.60;;
61709;SDS011;47633;51.494;5.386;2022-11-02T10:56:16;10.05;;;2.53;;
61709;SDS011;47633;51.494;5.386;2022-11-02T11:01:46;10.13;;;2.38;;
61709;SDS011;47633;51.494;5.386;2022-11-02T11:04:28;9.02;;;2.53;;
61709;SDS011;47633;51.494;5.386;2022-11-02T11:06:55;8.70;;;2.88;;
61709;SDS011;47633;51.494;5.386;2022-11-02T11:09:28;8.25;;;2.38;;
61709;SDS011;47633;51.494;5.386;2022-11-02T11:12:01;10.10;;;2.45;;
61709;SDS011;47633;51.494;5.386;2022-11-02T11:14:30;9.95;;;2.38;;
61709;SDS011;47633;51.494;5.386;2022-11-02T11:17:01;7.22;;;2.15;;
61709;SDS011;47633;51.494;5.386;2022-11-02T11:19:39;9.85;;;2.17;;
61709;SDS011;47633;51.494;5.386;2022-11-02T11:22:27;10.07;;;2.40;;
61709;SDS011;47633;51.494;5.386;2022-11-02T11:27:50;9.52;;;1.80;;
61709;SDS011;47633;51.494;5.386;2022-11-02T11:32:49;6.82;;;2.05;;
61709;SDS011;47633;51.494;5.386;2022-11-02T11:35:15;8.57;;;2.00;;
61709;SDS011;47633;51.494;5.386;2022-11-02T11:37:53;7.03;;;1.92;;
61709;SDS011;47633;51.494;5.386;2022-11-02T11:40:21;6.20;;;1.45;;
61709;SDS011;47633;51.494;5.386;2022-11-02T11:42:48;7.68;;;1.77;;
61709;SDS011;47633;51.494;5.386;2022-11-02T11:45:22;5.63;;;1.90;;
61709;SDS011;47633;51.494;5.386;2022-11-02T11:47:50;6.03;;;1.73;;
61709;SDS011;47633;51.494;5.386;2022-11-02T11:50:17;7.82;;;2.00;;
61709;SDS011;47633;51.494;5.386;2022-11-02T11:52:43;5.85;;;1.77;;
61709;SDS011;47633;51.494;5.386;2022-11-02T11:55:25;9.30;;;2.20;;
61709;SDS011;47633;51.494;5.386;2022-11-02T12:00:45;7.80;;;1.92;;
61709;SDS011;47633;51.494;5.386;2022-11-02T12:03:11;7.95;;;1.98;;
61709;SDS011;47633;51.494;5.386;2022-11-02T12:05:51;10.70;;;2.15;;
61709;SDS011;47633;51.494;5.386;2022-11-02T12:13:58;7.93;;;2.00;;
61709;SDS011;47633;51.494;5.386;2022-11-02T12:19:29;6.43;;;1.60;;
61709;SDS011;47633;51.494;5.386;2022-11-02T12:28:15;6.60;;;1.75;;
61709;SDS011;47633;51.494;5.386;2022-11-02T12:33:52;8.55;;;1.58;;
61709;SDS011;47633;51.494;5.386;2022-11-02T12:39:06;9.43;;;2.17;;
61709;SDS011;47633;51.494;5.386;2022-11-02T12:41:34;5.70;;;1.58;;
61709;SDS011;47633;51.494;5.386;2022-11-02T12:44:13;6.97;;;1.50;;
61709;SDS011;47633;51.494;5.386;2022-11-02T12:49:57;7.27;;;1.60;;
61709;SDS011;47633;51.494;5.386;2022-11-02T12:55:23;9.25;;;1.80;;
61709;SDS011;47633;51.494;5.386;2022-11-02T12:57:54;7.22;;;1.92;;
61709;SDS011;47633;51.494;5.386;2022-11-02T13:00:25;6.45;;;1.90;;
61709;SDS011;47633;51.494;5.386;2022-11-02T13:03:18;7.90;;;1.65;;
61709;SDS011;47633;51.494;5.386;2022-11-02T13:05:53;6.18;;;1.40;;
61709;SDS011;47633;51.494;5.386;2022-11-02T13:08:38;5.70;;;1.40;;
61709;SDS011;47633;51.494;5.386;2022-11-02T13:11:07;8.82;;;1.75;;
61709;SDS011;47633;51.494;5.386;2022-11-02T13:13:46;7.50;;;2.10;;
61709;SDS011;47633;51.494;5.386;2022-11-02T13:16:16;6.13;;;1.52;;
61709;SDS011;47633;51.494;5.386;2022-11-02T13:18:49;6.15;;;1.60;;
61709;SDS011;47633;51.494;5.386;2022-11-02T13:21:19;7.75;;;1.52;;
61709;SDS011;47633;51.494;5.386;2022-11-02T13:23:53;6.38;;;1.63;;
61709;SDS011;47633;51.494;5.386;2022-11-02T13:26:35;6.25;;;1.40;;
61709;SDS011;47633;51.494;5.386;2022-11-02T13:31:35;5.95;;;1.52;;
61709;SDS011;47633;51.494;5.386;2022-11-02T13:34:04;10.18;;;1.88;;
61709;SDS011;47633;51.494;5.386;2022-11-02T13:36:43;4.60;;;1.25;;
61709;SDS011;47633;51.494;5.386;2022-11-02T13:42:02;6.13;;;1.80;;
61709;SDS011;47633;51.494;5.386;2022-11-02T13:44:55;6.78;;;1.77;;
61709;SDS011;47633;51.494;5.386;2022-11-02T13:50:32;7.30;;;1.50;;
61709;SDS011;47633;51.494;5.386;2022-11-02T13:53:03;7.90;;;1.45;;
61709;SDS011;47633;51.494;5.386;2022-11-02T13:55:43;6.00;;;1.50;;
61709;SDS011;47633;51.494;5.386;2022-11-02T13:58:19;11.40;;;1.88;;
61709;SDS011;47633;51.494;5.386;2022-11-02T14:00:48;7.45;;;1.58;;
61709;SDS011;47633;51.494;5.386;2022-11-02T14:03:15;8.00;;;1.45;;
61709;SDS011;47633;51.494;5.386;2022-11-02T14:05:53;7.53;;;1.48;;
61709;SDS011;47633;51.494;5.386;2022-11-02T14:08:27;7.57;;;1.80;;
61709;SDS011;47633;51.494;5.386;2022-11-02T14:21:45;7.40;;;1.50;;
61709;SDS011;47633;51.494;5.386;2022-11-02T14:26:57;6.10;;;1.40;;
61709;SDS011;47633;51.494;5.386;2022-11-02T14:43:39;5.80;;;1.20;;
61709;SDS011;47633;51.494;5.386;2022-11-02T14:46:37;7.20;;;1.40;;
61709;SDS011;47633;51.494;5.386;2022-11-02T14:49:16;6.50;;;1.35;;
61709;SDS011;47633;51.494;5.386;2022-11-02T14:51:44;4.05;;;1.10;;
61709;SDS011;47633;51.494;5.386;2022-11-02T14:56:45;9.77;;;1.60;;
61709;SDS011;47633;51.494;5.386;2022-11-02T14:59:16;5.47;;;1.60;;
61709;SDS011;47633;51.494;5.386;2022-11-02T15:02:03;8.82;;;1.77;;
61709;SDS011;47633;51.494;5.386;2022-11-02T15:04:35;7.50;;;1.55;;
61709;SDS011;47633;51.494;5.386;2022-11-02T15:07:14;6.93;;;1.55;;
61709;SDS011;47633;51.494;5.386;2022-11-02T15:12:30;5.55;;;1.67;;
61709;SDS011;47633;51.494;5.386;2022-11-02T15:24:53;7.47;;;1.63;;
61709;SDS011;47633;51.494;5.386;2022-11-02T15:27:20;6.85;;;1.48;;
61709;SDS011;47633;51.494;5.386;2022-11-02T15:29:47;5.03;;;1.25;;
61709;SDS011;47633;51.494;5.386;2022-11-02T15:32:17;5.13;;;1.27;;
61709;SDS011;47633;51.494;5.386;2022-11-02T15:37:17;7.72;;;1.40;;
61709;SDS011;47633;51.494;5.386;2022-11-02T15:39:52;7.90;;;1.77;;
61709;SDS011;47633;51.494;5.386;2022-11-02T15:50:40;6.90;;;1.42;;
61709;SDS011;47633;51.494;5.386;2022-11-02T15:53:32;7.05;;;1.50;;
61709;SDS011;47633;51.494;5.386;2022-11-02T15:59:15;6.65;;;1.35;;
61709;SDS011;47633;51.494;5.386;2022-11-02T16:04:53;7.75;;;1.50;;
61709;SDS011;47633;51.494;5.386;2022-11-02T16:07:21;5.75;;;1.20;;
61709;SDS011;47633;51.494;5.386;2022-11-02T16:09:48;5.80;;;1.50;;
61709;SDS011;47633;51.494;5.386;2022-11-02T16:12:18;5.53;;;1.38;;
61709;SDS011;47633;51.494;5.386;2022-11-02T16:14:53;5.18;;;1.25;;
61709;SDS011;47633;51.494;5.386;2022-11-02T16:17:22;4.43;;;1.38;;
61709;SDS011;47633;51.494;5.386;2022-11-02T16:19:48;7.05;;;2.45;;
61709;SDS011;47633;51.494;5.386;2022-11-02T16:22:19;5.85;;;1.40;;
61709;SDS011;47633;51.494;5.386;2022-11-02T16:24:48;5.28;;;1.45;;
61709;SDS011;47633;51.494;5.386;2022-11-02T16:27:15;8.38;;;1.75;;
61709;SDS011;47633;51.494;5.386;2022-11-02T16:29:40;5.03;;;1.27;;
61709;SDS011;47633;51.494;5.386;2022-11-02T16:32:08;5.22;;;1.35;;
61709;SDS011;47633;51.494;5.386;2022-11-02T16:34:34;5.60;;;1.30;;
61709;SDS011;47633;51.494;5.386;2022-11-02T16:37:00;6.07;;;1.52;;
61709;SDS011;47633;51.494;5.386;2022-11-02T16:39:27;5.53;;;1.90;;
61709;SDS011;47633;51.494;5.386;2022-11-02T16:41:56;7.07;;;1.40;;
61709;SDS011;47633;51.494;5.386;2022-11-02T16:44:29;5.15;;;1.30;;
61709;SDS011;47633;51.494;5.386;2022-11-02T16:49:30;6.40;;;1.20;;
61709;SDS011;47633;51.494;5.386;2022-11-02T16:51:56;4.93;;;1.33;;
61709;SDS011;47633;51.494;5.386;2022-11-02T16:56:49;4.60;;;1.25;;
61709;SDS011;47633;51.494;5.386;2022-11-02T16:59:15;7.03;;;1.80;;
61709;SDS011;47633;51.494;5.386;2022-11-02T17:01:41;4.93;;;1.30;;
61709;SDS011;47633;51.494;5.386;2022-11-02T17:04:21;5.75;;;1.50;;
61709;SDS011;47633;51.494;5.386;2022-11-02T17:06:48;6.13;;;1.27;;
61709;SDS011;47633;51.494;5.386;2022-11-02T17:09:29;7.72;;;1.45;;
61709;SDS011;47633;51.494;5.386;2022-11-02T17:11:57;4.60;;;1.30;;
61709;SDS011;47633;51.494;5.386;2022-11-02T17:14:24;5.05;;;1.73;;
61709;SDS011;47633;51.494;5.386;2022-11-02T17:17:34;5.85;;;1.48;;
61709;SDS011;47633;51.494;5.386;2022-11-02T17:19:46;4.95;;;1.42;;
61709;SDS011;47633;51.494;5.386;2022-11-02T17:24:44;3.93;;;1.27;;
61709;SDS011;47633;51.494;5.386;2022-11-02T17:29:51;6.90;;;1.60;;
61709;SDS011;47633;51.494;5.386;2022-11-02T17:32:19;5.15;;;1.33;;
61709;SDS011;47633;51.494;5.386;2022-11-02T17:34:51;5.53;;;1.40;;
61709;SDS011;47633;51.494;5.386;2022-11-02T17:37:26;6.78;;;1.70;;
61709;SDS011;47633;51.494;5.386;2022-11-02T17:39:53;5.53;;;1.25;;
61709;SDS011;47633;51.494;5.386;2022-11-02T17:42:20;6.00;;;1.50;;